createdAt,value
2023-10-20T00:02:06.921Z,97274.34
2023-10-20T00:04:35.004Z,97276.03
2023-10-20T00:07:03.851Z,97269.03
2023-10-20T00:09:31.487Z,97267.25
2023-10-20T00:11:59.812Z,97270.34
2023-10-20T00:14:27.561Z,97264.81
2023-10-20T00:16:55.498Z,97271.09
2023-10-20T00:19:24.670Z,97266.75
2023-10-20T00:21:54.005Z,97255.69
2023-10-20T00:24:22.562Z,97259.47
2023-10-20T00:26:50.329Z,97257.50
2023-10-20T00:29:18.092Z,97256.19
2023-10-20T00:31:46.006Z,97258.59
2023-10-20T00:34:13.655Z,97247.22
2023-10-20T00:36:42.930Z,97231.31
2023-10-20T00:39:10.612Z,97221.69
2023-10-20T00:41:38.178Z,97222.88
2023-10-20T00:44:06.354Z,97204.34
2023-10-20T00:46:34.155Z,97205.38
2023-10-20T00:49:04.264Z,97196.34
2023-10-20T00:51:32.439Z,97194.75
2023-10-20T00:54:02.896Z,97193.06
2023-10-20T00:56:31.710Z,97189.50
2023-10-20T00:58:59.459Z,97184.31
2023-10-20T01:01:27.233Z,97185.13
2023-10-20T01:03:54.955Z,97188.63
2023-10-20T01:06:22.821Z,97182.72
2023-10-20T01:08:56.655Z,97180.81
2023-10-20T01:11:26.075Z,97189.22
2023-10-20T01:13:53.913Z,97184.91
2023-10-20T01:16:24.564Z,97180.53
2023-10-20T01:18:52.391Z,97169.72
2023-10-20T01:21:20.091Z,97174.13
2023-10-20T01:23:48.018Z,97170.53
2023-10-20T01:26:17.389Z,97181.91
2023-10-20T01:28:45.053Z,97178.97
2023-10-20T01:31:13.821Z,97158.72
2023-10-20T01:33:41.477Z,97154.72
2023-10-20T01:36:09.173Z,97156.53
2023-10-20T01:38:37.058Z,97155.66
2023-10-20T01:41:04.692Z,97143.25
2023-10-20T01:43:33.702Z,97131.66
2023-10-20T01:46:01.800Z,97128.66
2023-10-20T01:48:29.547Z,97125.69
2023-10-20T01:50:57.361Z,97130.72
2023-10-20T01:53:25.033Z,97132.84
2023-10-20T01:55:52.847Z,97121.13
2023-10-20T01:58:21.309Z,97112.16
2023-10-20T02:00:51.882Z,97107.25
2023-10-20T02:03:20.998Z,97099.97
2023-10-20T02:05:48.831Z,97093.38
2023-10-20T02:08:17.561Z,97091.97
2023-10-20T02:10:46.241Z,97096.72
2023-10-20T02:13:13.893Z,97079.16
2023-10-20T02:15:47.498Z,97068.78
2023-10-20T02:18:16.644Z,97070.09
2023-10-20T02:20:44.948Z,97059.44
2023-10-20T02:23:12.923Z,97051.03
2023-10-20T02:25:40.698Z,97050.72
2023-10-20T02:28:08.420Z,97034.22
2023-10-20T02:30:36.205Z,97033.63
2023-10-20T02:33:04.760Z,97031.59
2023-10-20T02:35:34.040Z,97034.94
2023-10-20T02:38:01.766Z,97010.38
2023-10-20T02:40:29.919Z,97017.44
2023-10-20T02:42:57.455Z,97003.09
2023-10-20T02:45:25.165Z,97000.69
2023-10-20T02:47:53.147Z,97008.06
2023-10-20T02:50:21.341Z,97003.41
2023-10-20T02:52:50.584Z,97010.75
2023-10-20T02:55:18.828Z,97003.59
2023-10-20T02:57:46.571Z,96998.81
2023-10-20T03:00:19.450Z,96989.81
2023-10-20T03:02:49.907Z,96982.50
2023-10-20T03:05:18.098Z,96978.81
2023-10-20T03:07:47.045Z,96983.50
2023-10-20T03:10:16.126Z,96979.31
2023-10-20T03:12:44.111Z,96963.63
2023-10-20T03:15:12.914Z,96949.84
2023-10-20T03:17:40.724Z,96953.59
2023-10-20T03:20:10.502Z,96929.06
2023-10-20T03:22:38.594Z,96933.56
2023-10-20T03:25:08.906Z,96937.59
2023-10-20T03:27:38.999Z,96930.56
2023-10-20T03:30:07.897Z,96928.00
2023-10-20T03:32:36.349Z,96929.19
2023-10-20T03:35:04.705Z,96925.72
2023-10-20T03:37:32.635Z,96927.69
2023-10-20T03:40:00.251Z,96927.09
2023-10-20T03:42:28.008Z,96916.53
2023-10-20T03:44:57.571Z,96903.72
2023-10-20T03:47:29.062Z,96905.91
2023-10-20T03:49:59.300Z,96895.03
2023-10-20T03:52:29.398Z,96883.56
2023-10-20T03:54:57.278Z,96887.06
2023-10-20T03:57:24.958Z,96879.66
2023-10-20T03:59:52.531Z,96873.66
2023-10-20T04:02:21.591Z,96861.88
2023-10-20T04:04:49.239Z,96864.47
2023-10-20T04:07:16.934Z,96857.38
2023-10-20T04:09:45.073Z,96843.41
2023-10-20T04:12:12.790Z,96858.19
2023-10-20T04:14:40.428Z,96850.38
2023-10-20T04:17:08.144Z,96836.22
2023-10-20T04:19:37.139Z,96828.63
2023-10-20T04:22:13.559Z,96799.97
2023-10-20T04:24:42.380Z,96803.97
2023-10-20T04:27:21.853Z,96799.38
2023-10-20T04:30:09.943Z,96771.06
2023-10-20T04:32:55.275Z,96771.38
2023-10-20T04:35:41.858Z,96760.38
2023-10-20T04:38:27.300Z,96751.59
2023-10-20T04:41:12.516Z,96762.38
2023-10-20T04:43:43.182Z,96744.19
2023-10-20T04:46:28.713Z,96744.69
2023-10-20T04:49:18.569Z,96744.19
2023-10-20T04:52:07.661Z,96731.91
2023-10-20T04:54:51.612Z,96720.84
2023-10-20T04:57:38.572Z,96710.28
2023-10-20T05:00:21.225Z,96698.69
2023-10-20T05:03:00.070Z,96701.69
2023-10-20T05:05:34.900Z,96691.72
2023-10-20T05:08:06.769Z,96699.22
2023-10-20T05:10:34.808Z,96697.09
2023-10-20T05:13:02.569Z,96692.03
2023-10-20T05:15:32.767Z,96700.00
2023-10-20T05:18:00.921Z,96688.31
2023-10-20T05:20:28.733Z,96687.81
2023-10-20T05:22:57.518Z,96674.56
2023-10-20T05:25:26.495Z,96671.47
2023-10-20T05:27:54.171Z,96670.69
2023-10-20T05:30:22.042Z,96658.31
2023-10-20T05:32:51.172Z,96646.22
2023-10-20T05:35:18.972Z,96639.13
2023-10-20T05:37:46.752Z,96637.66
2023-10-20T05:40:15.290Z,96640.13
2023-10-20T05:42:44.291Z,96634.88
2023-10-20T05:45:18.448Z,96634.66
2023-10-20T05:47:46.690Z,96617.31
2023-10-20T05:50:15.720Z,96618.03
2023-10-20T05:52:43.779Z,96602.06
2023-10-20T05:55:11.383Z,96592.06
2023-10-20T05:57:39.009Z,96583.81
2023-10-20T06:00:10.436Z,96581.41
2023-10-20T06:02:38.192Z,96568.25
2023-10-20T06:05:06.524Z,96548.72
2023-10-20T06:07:34.352Z,96555.00
2023-10-20T06:10:02.168Z,96564.34
2023-10-20T06:12:29.804Z,96580.44
2023-10-20T06:14:57.430Z,96586.91
2023-10-20T06:17:26.499Z,96595.19
2023-10-20T06:19:54.188Z,96591.69
2023-10-20T06:22:22.598Z,96578.94
2023-10-20T06:24:50.298Z,96584.03
2023-10-20T06:27:17.928Z,96572.75
2023-10-20T06:29:48.984Z,96580.44
2023-10-20T06:32:26.963Z,96581.53
2023-10-20T06:35:01.000Z,96583.53
2023-10-20T06:37:32.972Z,96578.44
2023-10-20T06:40:00.659Z,96570.97
2023-10-20T06:42:29.929Z,96569.50
2023-10-20T06:44:57.706Z,96553.03
2023-10-20T06:47:25.818Z,96538.47
2023-10-20T06:49:53.654Z,96531.41
2023-10-20T06:52:27.036Z,96511.66
2023-10-20T06:55:30.441Z,96497.50
2023-10-20T06:57:45.343Z,96483.25
2023-10-20T07:00:18.506Z,96481.84
2023-10-20T07:02:46.529Z,96475.19
2023-10-20T07:05:15.596Z,96460.63
2023-10-20T07:07:45.073Z,96445.09
2023-10-20T07:10:12.743Z,96441.38
2023-10-20T07:12:40.567Z,96433.41
2023-10-20T07:15:09.181Z,96449.09
2023-10-20T07:17:37.067Z,96437.63
2023-10-20T07:20:07.200Z,96438.84
2023-10-20T07:22:35.207Z,96434.31
2023-10-20T07:25:06.385Z,96427.78
2023-10-20T07:27:34.091Z,96429.97
2023-10-20T07:30:04.544Z,96427.56
2023-10-20T07:32:32.682Z,96429.78
2023-10-20T07:35:01.796Z,96422.50
2023-10-20T07:37:29.389Z,96440.69
2023-10-20T07:39:57.089Z,96442.25
2023-10-20T07:42:26.254Z,96437.47
2023-10-20T07:44:55.787Z,96441.03
2023-10-20T07:47:23.774Z,96430.16
2023-10-20T07:49:52.417Z,96433.84
2023-10-20T07:52:20.888Z,96433.03
2023-10-20T07:54:48.691Z,96436.69
2023-10-20T07:57:18.877Z,96429.13
2023-10-20T07:59:48.769Z,96430.81
2023-10-20T08:02:16.480Z,96430.84
2023-10-20T08:04:44.778Z,96427.97
2023-10-20T08:07:12.844Z,96439.44
2023-10-20T08:09:40.766Z,96433.19
2023-10-20T08:12:08.873Z,96420.72
2023-10-20T08:14:36.830Z,96421.75
2023-10-20T08:17:08.704Z,96424.75
2023-10-20T08:19:36.731Z,96419.56
2023-10-20T08:22:04.559Z,96427.56
2023-10-20T08:24:32.266Z,96430.28
2023-10-20T08:26:59.964Z,96431.72
2023-10-20T08:29:28.414Z,96433.00
2023-10-20T08:31:56.102Z,96428.91
2023-10-20T08:34:25.434Z,96435.19
2023-10-20T08:36:53.178Z,96438.91
2023-10-20T08:39:23.657Z,96445.13
2023-10-20T08:41:52.348Z,96443.59
2023-10-20T08:44:21.537Z,96445.53
2023-10-20T08:46:50.272Z,96452.84
2023-10-20T08:49:20.123Z,96452.84
2023-10-20T08:51:50.098Z,96460.19
2023-10-20T08:56:48.628Z,96452.72
2023-10-20T08:59:18.951Z,96459.53
2023-10-20T09:01:48.464Z,96458.88
2023-10-20T09:04:23.205Z,96459.22
2023-10-20T09:06:52.507Z,96465.84
2023-10-20T09:09:21.304Z,96474.75
2023-10-20T09:11:49.927Z,96476.25
2023-10-20T09:14:17.673Z,96489.78
2023-10-20T09:16:46.323Z,96497.94
2023-10-20T09:19:15.161Z,96480.50
2023-10-20T09:21:47.584Z,96485.13
2023-10-20T09:24:18.469Z,96472.09
2023-10-20T09:26:47.067Z,96480.34
2023-10-20T09:29:16.331Z,96482.25
2023-10-20T09:31:44.376Z,96480.81
2023-10-20T09:34:12.788Z,96485.88
2023-10-20T09:36:46.298Z,96481.94
2023-10-20T09:39:21.429Z,96480.66
2023-10-20T09:41:52.889Z,96484.78
2023-10-20T09:44:30.170Z,96484.63
2023-10-20T09:47:03.923Z,96483.03
2023-10-20T09:49:32.577Z,96472.41
2023-10-20T09:52:00.454Z,96473.84
2023-10-20T09:54:33.606Z,96476.69
2023-10-20T09:57:02.764Z,96486.72
2023-10-20T09:59:31.633Z,96465.84
2023-10-20T10:02:01.340Z,96480.28
2023-10-20T10:04:30.581Z,96504.00
2023-10-20T10:07:04.686Z,96537.22
2023-10-20T10:09:50.414Z,96561.09
2023-10-20T10:12:19.794Z,96557.84
2023-10-20T10:14:57.207Z,96559.50
2023-10-20T10:17:25.226Z,96572.84
2023-10-20T10:19:53.032Z,96578.16
2023-10-20T10:22:27.619Z,96591.31
2023-10-20T10:25:00.008Z,96598.47
2023-10-20T10:27:28.819Z,96586.97
2023-10-20T10:30:00.259Z,96585.44
2023-10-20T10:32:32.653Z,96579.72
2023-10-20T10:35:01.449Z,96578.91
2023-10-20T10:37:34.994Z,96567.41
2023-10-20T10:40:12.930Z,96549.47
2023-10-20T10:42:42.747Z,96537.22
2023-10-20T10:45:22.489Z,96533.19
2023-10-20T10:47:51.182Z,96535.72
2023-10-20T10:50:21.716Z,96530.28
2023-10-20T10:52:52.974Z,96537.78
2023-10-20T10:55:22.648Z,96532.28
2023-10-20T10:57:50.431Z,96532.06
2023-10-20T11:00:18.524Z,96534.25
2023-10-20T11:02:47.345Z,96533.91
2023-10-20T11:05:16.822Z,96527.53
2023-10-20T11:07:57.503Z,96532.25
2023-10-20T11:10:28.823Z,96540.88
2023-10-20T11:12:56.818Z,96543.38
2023-10-20T11:15:29.460Z,96548.06
2023-10-20T11:17:58.613Z,96542.81
2023-10-20T11:20:30.716Z,96559.66
2023-10-20T11:22:59.312Z,96556.19
2023-10-20T11:25:28.827Z,96536.72
2023-10-20T11:27:57.757Z,96537.09
2023-10-20T11:30:27.363Z,96545.19
2023-10-20T11:32:56.176Z,96543.06
2023-10-20T11:35:25.708Z,96548.25
2023-10-20T11:37:54.059Z,96535.97
2023-10-20T11:40:22.621Z,96526.16
2023-10-20T11:42:54.188Z,96524.66
2023-10-20T11:45:22.703Z,96517.28
2023-10-20T11:47:50.663Z,96515.97
2023-10-20T11:50:19.946Z,96523.31
2023-10-20T11:52:48.353Z,96528.00
2023-10-20T11:55:16.349Z,96528.47
2023-10-20T11:57:44.324Z,96534.22
2023-10-20T12:00:14.994Z,96532.31
2023-10-20T12:02:43.193Z,96526.91
2023-10-20T12:05:11.222Z,96533.88
2023-10-20T12:07:39.475Z,96525.31
2023-10-20T12:10:08.619Z,96528.03
2023-10-20T12:12:36.411Z,96527.88
2023-10-20T12:15:04.646Z,96532.44
2023-10-20T12:17:33.768Z,96537.06
2023-10-20T12:20:01.485Z,96533.03
2023-10-20T12:22:29.357Z,96538.41
2023-10-20T12:24:57.234Z,96541.22
2023-10-20T12:27:25.397Z,96545.69
2023-10-20T12:29:53.674Z,96548.25
2023-10-20T12:32:21.513Z,96553.16
2023-10-20T12:34:51.021Z,96542.19
2023-10-20T12:37:18.919Z,96559.38
2023-10-20T12:39:46.576Z,96559.03
2023-10-20T12:42:14.215Z,96572.09
2023-10-20T12:44:41.923Z,96570.66
2023-10-20T12:47:09.953Z,96575.75
2023-10-20T12:49:37.671Z,96585.28
2023-10-20T12:52:07.030Z,96569.84
2023-10-20T12:54:34.904Z,96576.06
2023-10-20T12:57:04.329Z,96573.53
2023-10-20T12:59:32.459Z,96580.34
2023-10-20T13:02:02.392Z,96577.16
2023-10-20T13:04:30.377Z,96569.22
2023-10-20T13:07:01.134Z,96572.75
2023-10-20T13:09:31.074Z,96562.69
2023-10-20T13:12:01.242Z,96551.56
2023-10-20T13:14:29.735Z,96576.72
2023-10-20T13:16:58.083Z,96570.97
2023-10-20T13:19:25.946Z,96585.91
2023-10-20T13:21:53.888Z,96596.84
2023-10-20T13:24:21.540Z,96594.06
2023-10-20T13:26:52.467Z,96609.69
2023-10-20T13:29:20.265Z,96606.75
2023-10-20T13:31:47.993Z,96609.31
2023-10-20T13:34:15.672Z,96618.38
2023-10-20T13:36:43.552Z,96599.59
2023-10-20T13:41:43.699Z,96594.44
2023-10-20T13:44:12.767Z,96608.66
2023-10-20T13:46:40.673Z,96616.03
2023-10-20T13:49:09.975Z,96617.31
2023-10-20T13:51:37.929Z,96619.97
2023-10-20T13:54:06.092Z,96615.16
2023-10-20T13:56:34.115Z,96613.50
2023-10-20T13:59:01.940Z,96608.25
2023-10-20T14:01:30.963Z,96604.78
2023-10-20T14:03:58.949Z,96598.00
2023-10-20T14:06:27.224Z,96596.50
2023-10-20T14:08:54.952Z,96595.78
2023-10-20T14:11:25.428Z,96605.22
2023-10-20T14:13:54.992Z,96602.66
2023-10-20T14:16:22.660Z,96609.63
2023-10-20T14:18:51.769Z,96616.66
2023-10-20T14:21:19.555Z,96624.22
2023-10-20T14:23:47.202Z,96628.88
2023-10-20T14:26:15.621Z,96647.72
2023-10-20T14:28:43.600Z,96640.75
2023-10-20T14:31:12.282Z,96660.03
2023-10-20T14:33:40.319Z,96677.75
2023-10-20T14:36:16.440Z,96672.94
2023-10-20T14:38:44.198Z,96675.03
2023-10-20T14:41:12.032Z,96696.19
2023-10-20T14:43:40.531Z,96706.25
2023-10-20T14:46:10.178Z,96717.72
2023-10-20T14:48:38.556Z,96725.53
2023-10-20T14:51:11.747Z,96730.63
2023-10-20T14:53:39.716Z,96742.72
2023-10-20T14:56:10.032Z,96747.97
2023-10-20T14:58:37.971Z,96756.72
2023-10-20T15:01:08.722Z,96762.56
2023-10-20T15:03:36.753Z,96765.25
2023-10-20T15:06:05.968Z,96761.56
2023-10-20T15:08:35.379Z,96772.84
2023-10-20T15:11:08.188Z,96766.94
2023-10-20T15:13:36.318Z,96770.25
2023-10-20T15:16:05.955Z,96770.72
2023-10-20T15:18:34.266Z,96784.72
2023-10-20T15:21:04.938Z,96802.84
2023-10-20T15:23:32.808Z,96795.84
2023-10-20T15:26:05.394Z,96790.25
2023-10-20T15:28:33.227Z,96793.09
2023-10-20T15:31:07.395Z,96795.97
2023-10-20T15:33:36.362Z,96798.94
2023-10-20T15:36:05.560Z,96798.16
2023-10-20T15:38:33.384Z,96804.81
2023-10-20T15:41:02.524Z,96815.16
2023-10-20T15:43:30.283Z,96823.25
2023-10-20T15:46:00.662Z,96827.41
2023-10-20T15:48:29.038Z,96838.03
2023-10-20T15:50:56.845Z,96844.00
2023-10-20T15:53:25.273Z,96851.41
2023-10-20T15:55:55.463Z,96863.66
2023-10-20T15:58:24.608Z,96875.50
2023-10-20T16:00:59.415Z,96884.25
2023-10-20T16:03:27.742Z,96887.19
2023-10-20T16:05:55.860Z,96893.00
2023-10-20T16:08:23.786Z,96890.63
2023-10-20T16:10:51.542Z,96905.13
2023-10-20T16:13:19.143Z,96908.25
2023-10-20T16:15:48.163Z,96910.53
2023-10-20T16:18:16.065Z,96910.44
2023-10-20T16:20:45.422Z,96908.78
2023-10-20T16:23:13.169Z,96921.00
2023-10-20T16:25:40.881Z,96922.50
2023-10-20T16:28:08.638Z,96917.22
2023-10-20T16:30:37.020Z,96922.34
2023-10-20T16:33:06.192Z,96928.34
2023-10-20T16:35:34.155Z,96936.13
2023-10-20T16:38:02.594Z,96931.66
2023-10-20T16:40:32.331Z,96934.97
2023-10-20T16:43:02.389Z,96937.34
2023-10-20T16:45:30.704Z,96948.03
2023-10-20T16:47:58.740Z,96957.53
2023-10-20T16:50:28.208Z,96959.53
2023-10-20T16:52:56.010Z,96958.63
2023-10-20T16:55:23.675Z,96963.63
2023-10-20T16:57:51.335Z,96947.50
2023-10-20T17:00:19.019Z,96944.44
2023-10-20T17:02:48.364Z,96959.59
2023-10-20T17:05:16.190Z,96970.31
2023-10-20T17:07:45.391Z,96976.31
2023-10-20T17:10:13.704Z,96976.59
2023-10-20T17:12:41.693Z,97001.84
2023-10-20T17:15:09.675Z,97004.81
2023-10-20T17:17:37.431Z,97006.44
2023-10-20T17:20:05.830Z,97018.28
2023-10-20T17:22:33.651Z,97028.56
2023-10-20T17:25:03.461Z,97025.06
2023-10-20T17:27:31.478Z,97012.78
2023-10-20T17:29:59.312Z,97013.44
2023-10-20T17:32:27.473Z,97003.97
2023-10-20T17:34:55.498Z,97001.06
2023-10-20T17:37:23.212Z,97011.59
2023-10-20T17:39:53.250Z,97013.50
2023-10-20T17:42:23.925Z,97016.00
2023-10-20T17:44:51.761Z,97018.91
2023-10-20T17:47:19.544Z,97016.88
2023-10-20T17:49:47.278Z,97008.50
2023-10-20T17:52:15.204Z,97007.13
2023-10-20T17:54:44.517Z,97009.00
2023-10-20T17:57:12.098Z,97022.47
2023-10-20T17:59:41.176Z,97028.66
2023-10-20T18:02:09.555Z,97030.28
2023-10-20T18:04:37.368Z,97026.47
2023-10-20T18:07:05.111Z,97031.97
2023-10-20T18:09:32.913Z,97037.13
2023-10-20T18:12:00.626Z,97044.00
2023-10-20T18:14:28.634Z,97038.75
2023-10-20T18:16:57.893Z,97035.81
2023-10-20T18:19:25.566Z,97033.22
2023-10-20T18:21:54.667Z,97029.78
2023-10-20T18:24:22.391Z,97037.13
2023-10-20T18:26:50.170Z,97043.91
2023-10-20T18:29:17.899Z,97052.84
2023-10-20T18:31:45.750Z,97053.72
2023-10-20T18:34:14.807Z,97044.06
2023-10-20T18:36:42.591Z,97043.81
2023-10-20T18:39:16.896Z,97046.78
2023-10-20T18:41:44.999Z,97041.69
2023-10-20T18:44:12.628Z,97034.22
2023-10-20T18:46:40.918Z,97032.38
2023-10-20T18:49:09.294Z,97044.22
2023-10-20T18:51:38.695Z,97052.31
2023-10-20T18:54:09.278Z,97055.47
2023-10-20T18:56:37.093Z,97058.28
2023-10-20T18:59:06.120Z,97057.75
2023-10-20T19:01:33.835Z,97062.09
2023-10-20T19:04:02.310Z,97061.84
2023-10-20T19:06:30.414Z,97053.88
2023-10-20T19:08:59.570Z,97059.81
2023-10-20T19:11:27.464Z,97056.63
2023-10-20T19:13:55.105Z,97065.28
2023-10-20T19:16:22.916Z,97055.81
2023-10-20T19:18:50.692Z,97055.88
2023-10-20T19:21:18.401Z,97057.28
2023-10-20T19:23:46.405Z,97058.13
2023-10-20T19:26:15.603Z,97062.44
2023-10-20T19:28:43.493Z,97066.75
2023-10-20T19:31:12.879Z,97071.94
2023-10-20T19:33:40.965Z,97075.19
2023-10-20T19:36:10.549Z,97074.44
2023-10-20T19:38:39.006Z,97077.63
2023-10-20T19:41:07.911Z,97084.38
2023-10-20T19:43:37.099Z,97095.66
2023-10-20T19:46:04.866Z,97096.53
2023-10-20T19:48:32.846Z,97101.59
2023-10-20T19:51:00.793Z,97108.16
2023-10-20T19:53:29.132Z,97104.09
2023-10-20T19:55:57.074Z,97106.84
2023-10-20T19:58:24.981Z,97109.00
2023-10-20T20:00:57.163Z,97112.25
2023-10-20T20:03:24.971Z,97109.53
2023-10-20T20:05:52.845Z,97112.03
2023-10-20T20:08:20.525Z,97108.28
2023-10-20T20:10:48.189Z,97116.09
2023-10-20T20:13:15.915Z,97116.34
2023-10-20T20:15:43.616Z,97113.91
2023-10-20T20:18:12.707Z,97104.25
2023-10-20T20:20:40.453Z,97109.38
2023-10-20T20:23:08.226Z,97109.06
2023-10-20T20:25:36.215Z,97111.50
2023-10-20T20:28:04.041Z,97117.41
2023-10-20T20:30:31.636Z,97112.56
2023-10-20T20:32:59.648Z,97119.09
2023-10-20T20:35:28.696Z,97111.50
2023-10-20T20:37:56.529Z,97111.53
2023-10-20T20:40:24.362Z,97114.22
2023-10-20T20:42:53.234Z,97105.06
2023-10-20T20:45:21.568Z,97107.53
2023-10-20T20:47:49.361Z,97110.50
2023-10-20T20:50:29.841Z,97119.03
2023-10-20T20:53:00.557Z,97115.75
2023-10-20T20:55:28.213Z,97121.94
2023-10-20T20:57:55.885Z,97122.44
2023-10-20T21:00:23.639Z,97123.16
2023-10-20T21:02:51.609Z,97129.09
2023-10-20T21:05:19.373Z,97128.31
2023-10-20T21:07:47.174Z,97136.56
2023-10-20T21:10:16.215Z,97144.28
2023-10-20T21:12:43.952Z,97140.50
2023-10-20T21:15:13.861Z,97138.56
2023-10-20T21:17:42.057Z,97141.72
2023-10-20T21:20:10.547Z,97137.63
2023-10-20T21:22:38.217Z,97129.28
2023-10-20T21:25:07.154Z,97121.97
2023-10-20T21:27:36.212Z,97131.34
2023-10-20T21:30:04.530Z,97132.63
2023-10-20T21:32:32.286Z,97124.00
2023-10-20T21:35:00.523Z,97131.13
2023-10-20T21:37:28.380Z,97119.59
2023-10-20T21:39:56.236Z,97120.38
2023-10-20T21:42:23.906Z,97127.38
2023-10-20T21:44:53.029Z,97121.78
2023-10-20T21:47:22.699Z,97118.56
2023-10-20T21:49:52.146Z,97119.66
2023-10-20T21:52:20.688Z,97124.25
2023-10-20T21:54:49.450Z,97124.53
2023-10-20T21:57:18.372Z,97137.63
2023-10-20T21:59:46.259Z,97141.19
2023-10-20T22:02:16.519Z,97148.69
2023-10-20T22:04:44.304Z,97135.69
2023-10-20T22:07:12.086Z,97150.09
2023-10-20T22:09:52.974Z,97146.88
2023-10-20T22:12:21.772Z,97148.19
2023-10-20T22:14:49.669Z,97136.03
2023-10-20T22:17:18.922Z,97145.91
2023-10-20T22:19:48.055Z,97145.63
2023-10-20T22:22:15.744Z,97156.69
2023-10-20T22:24:43.555Z,97155.38
2023-10-20T22:27:11.349Z,97158.34
2023-10-20T22:29:39.310Z,97157.81
2023-10-20T22:32:07.968Z,97164.81
2023-10-20T22:34:37.233Z,97170.75
2023-10-20T22:37:05.415Z,97162.28
2023-10-20T22:39:33.253Z,97175.53
2023-10-20T22:42:01.551Z,97175.53
2023-10-20T22:44:29.770Z,97174.66
2023-10-20T22:46:59.817Z,97177.59
2023-10-20T22:49:27.548Z,97183.56
2023-10-20T22:51:56.628Z,97177.59
2023-10-20T22:54:24.403Z,97168.19
2023-10-20T22:56:52.188Z,97153.97
2023-10-20T22:59:20.639Z,97151.56
2023-10-20T23:01:48.386Z,97140.53
2023-10-20T23:04:18.596Z,97142.91
2023-10-20T23:06:46.699Z,97149.09
2023-10-20T23:09:15.980Z,97139.09
2023-10-20T23:11:44.751Z,97151.00
2023-10-20T23:14:12.618Z,97134.91
2023-10-20T23:16:40.352Z,97145.44
2023-10-20T23:19:08.156Z,97144.91
2023-10-20T23:21:36.046Z,97146.53
2023-10-20T23:24:04.422Z,97145.50
2023-10-20T23:26:33.548Z,97148.78
2023-10-20T23:29:01.157Z,97151.69
2023-10-20T23:31:28.787Z,97155.75
2023-10-20T23:33:56.784Z,97157.91
2023-10-20T23:36:24.475Z,97150.88
2023-10-20T23:38:52.120Z,97138.25
2023-10-20T23:41:19.769Z,97144.69
2023-10-20T23:43:48.760Z,97139.03
2023-10-20T23:46:16.398Z,97154.97
2023-10-20T23:48:44.224Z,97152.59
2023-10-20T23:51:11.921Z,97144.53
2023-10-20T23:53:39.607Z,97139.66
2023-10-20T23:56:07.528Z,97139.13
2023-10-20T23:58:35.254Z,97131.06
